Terminal Aerodrome Forecast
Issued by NWS Twin Cities, MN

Home | Current Version | Previous Version | Text Only | Print | Product List | Glossary Off
Versions: 1 2 3 4 5 6 7 8 9 10 11 12 13 14 15 16 17 18 19 20 21 22 23 24 25

978
FTUS43 KMPX 241447 AAA
TAFMSP
TAF AMD
KMSP 241447Z 2415/2518 35010KT P6SM FEW035 BKN080
     FM241700 36013G20KT P6SM SCT040 BKN060
     FM250200 01007KT P6SM SKC
     FM251400 09004KT P6SM SKC=

USA.gov is the U.S. government's official web portal to all federal, state and local government web resources and services.